createdAt,value
2023-03-19T00:03:07.310Z,24.02
2023-03-19T00:13:10.472Z,24.01
2023-03-19T00:23:13.646Z,24.00
2023-03-19T00:33:16.928Z,23.98
2023-03-19T00:43:20.147Z,23.95
2023-03-19T00:53:23.327Z,23.95
2023-03-19T01:03:26.546Z,23.94
2023-03-19T01:13:29.723Z,23.92
2023-03-19T01:23:33.010Z,23.92
2023-03-19T01:33:36.195Z,23.90
2023-03-19T01:43:39.389Z,23.90
2023-03-19T01:53:42.554Z,23.89
2023-03-19T02:03:45.736Z,23.89
2023-03-19T02:13:48.882Z,23.86
2023-03-19T02:23:52.085Z,23.86
2023-03-19T02:33:55.267Z,23.86
2023-03-19T02:43:58.475Z,23.85
2023-03-19T02:54:01.623Z,23.83
2023-03-19T03:04:04.830Z,23.82
2023-03-19T03:14:07.986Z,23.82
2023-03-19T03:24:11.325Z,23.82
2023-03-19T03:34:14.512Z,23.82
2023-03-19T03:44:17.703Z,23.79
2023-03-19T03:54:20.881Z,23.79
2023-03-19T04:04:24.060Z,23.77
2023-03-19T04:14:27.217Z,23.76
2023-03-19T04:24:30.454Z,23.79
2023-03-19T04:34:33.610Z,23.80
2023-03-19T04:44:36.812Z,23.82
2023-03-19T04:54:39.954Z,23.83
2023-03-19T05:04:43.151Z,23.83
2023-03-19T05:14:46.319Z,23.86
2023-03-19T05:24:49.528Z,23.85
2023-03-19T05:34:52.760Z,23.87
2023-03-19T05:44:55.986Z,23.86
2023-03-19T05:54:59.139Z,23.87
2023-03-19T06:05:02.337Z,23.87
2023-03-19T06:15:05.522Z,23.89
2023-03-19T06:25:08.778Z,23.89
2023-03-19T06:35:11.971Z,23.89
2023-03-19T06:45:15.181Z,23.90
2023-03-19T06:55:18.352Z,23.95
2023-03-19T07:05:21.612Z,24.00
2023-03-19T07:15:24.798Z,24.02
2023-03-19T07:25:28.014Z,24.04
2023-03-19T07:35:31.256Z,24.04
2023-03-19T07:45:34.472Z,24.04
2023-03-19T07:55:38.446Z,24.02
2023-03-19T08:05:41.685Z,24.00
2023-03-19T08:15:44.878Z,24.02
2023-03-19T08:25:48.072Z,24.01
2023-03-19T08:35:51.305Z,24.02
2023-03-19T08:45:54.606Z,24.04
2023-03-19T08:55:57.884Z,24.05
2023-03-19T09:06:01.091Z,24.05
2023-03-19T09:16:04.337Z,24.07
2023-03-19T09:26:07.567Z,24.05
2023-03-19T09:36:10.754Z,24.07
2023-03-19T09:46:14.016Z,24.07
2023-03-19T09:56:17.232Z,24.07
2023-03-19T10:06:20.437Z,24.08
2023-03-19T10:16:23.662Z,24.08
2023-03-19T10:26:26.856Z,24.10
2023-03-19T10:36:30.042Z,24.12
2023-03-19T10:46:33.231Z,24.13
2023-03-19T10:56:36.430Z,24.10
2023-03-19T11:06:39.627Z,24.10
2023-03-19T11:16:42.837Z,24.13
2023-03-19T11:26:46.049Z,24.13
2023-03-19T11:36:49.198Z,24.13
2023-03-19T11:46:52.688Z,24.14
2023-03-19T11:56:55.841Z,24.16
2023-03-19T12:06:59.068Z,24.16
2023-03-19T12:17:02.253Z,24.17
2023-03-19T12:27:05.456Z,24.17
2023-03-19T12:37:08.605Z,24.17
2023-03-19T12:47:11.810Z,24.19
2023-03-19T12:57:14.963Z,24.19
2023-03-19T13:07:18.161Z,24.19
2023-03-19T13:17:21.623Z,24.20
2023-03-19T13:27:24.829Z,24.22
2023-03-19T13:37:27.986Z,24.22
2023-03-19T13:47:31.164Z,24.22
2023-03-19T13:57:34.322Z,24.23
2023-03-19T14:07:37.518Z,24.23
2023-03-19T14:17:40.659Z,24.23
2023-03-19T14:27:43.875Z,24.22
2023-03-19T14:37:47.083Z,24.23
2023-03-19T14:47:50.271Z,24.23
2023-03-19T14:57:53.424Z,24.24
2023-03-19T15:07:56.625Z,24.26
2023-03-19T15:18:03.850Z,24.23
2023-03-19T15:28:04.501Z,24.24
2023-03-19T15:38:05.231Z,24.26
2023-03-19T15:48:08.482Z,24.24
2023-03-19T15:58:11.648Z,24.26
2023-03-19T16:08:14.891Z,24.24
2023-03-19T16:18:18.099Z,24.24
2023-03-19T16:28:21.288Z,24.23
2023-03-19T16:38:24.472Z,24.24
2023-03-19T16:48:27.817Z,24.24
2023-03-19T16:58:31.015Z,24.23
2023-03-19T17:08:34.199Z,24.23
2023-03-19T17:18:37.344Z,24.23
2023-03-19T17:28:40.529Z,24.24
2023-03-19T17:38:43.682Z,24.23
2023-03-19T17:48:47.031Z,24.20
2023-03-19T17:58:50.596Z,24.23
2023-03-19T18:08:53.832Z,24.23
2023-03-19T18:18:57.080Z,24.22
2023-03-19T18:29:00.288Z,24.20
2023-03-19T18:39:03.479Z,24.22
2023-03-19T18:49:06.652Z,24.22
2023-03-19T18:59:09.818Z,24.20
2023-03-19T19:09:13.022Z,24.22
2023-03-19T19:19:16.174Z,24.19
2023-03-19T19:29:19.431Z,24.19
2023-03-19T19:39:22.590Z,24.19
2023-03-19T19:49:25.840Z,24.17
2023-03-19T19:59:29.018Z,24.17
2023-03-19T20:09:32.200Z,24.17
2023-03-19T20:19:35.359Z,24.16
2023-03-19T20:29:38.560Z,24.17
2023-03-19T20:39:41.719Z,24.17
2023-03-19T20:49:44.908Z,24.16
2023-03-19T20:59:48.095Z,24.16
2023-03-19T21:09:51.283Z,24.14
2023-03-19T21:19:54.431Z,24.16
2023-03-19T21:29:57.773Z,24.14
2023-03-19T21:50:52.751Z,24.12
2023-03-19T22:00:55.941Z,24.14
2023-03-19T22:10:59.157Z,24.14
2023-03-19T22:21:02.329Z,24.13
2023-03-19T22:31:05.534Z,24.13
2023-03-19T22:41:08.809Z,24.12
2023-03-19T22:51:12.008Z,24.13
2023-03-19T23:01:15.176Z,24.10
2023-03-19T23:11:18.372Z,24.08
2023-03-19T23:21:21.545Z,24.05
2023-03-19T23:31:24.733Z,24.05
2023-03-19T23:41:27.882Z,24.02
2023-03-19T23:51:31.097Z,24.01
